Time;durP1;ratioP1;P1;durP2;ratioP2;P2;SDS_P1;SDS_P2;PMS_P1;PMS_P2;Temp;Humidity;BMP_temperature;BMP_pressure;BME280_temperature;BME280_humidity;BME280_pressure;Samples;Min_cycle;Max_cycle;Signal;HPM_P1;HPM_P2
2022/06/16 00:00:18;;;;;;;2.13;1.92;;;16.20;99.90;;;;;;5060414;28;20048;-75
2022/06/16 00:02:49;;;;;;;4.93;2.63;;;16.20;99.90;;;;;;5054472;28;20053;-77
2022/06/16 00:05:21;;;;;;;2.67;1.63;;;16.10;99.90;;;;;;5047064;28;20051;-77
2022/06/16 00:07:49;;;;;;;6.45;1.90;;;16.10;99.90;;;;;;5051055;28;20051;-77
2022/06/16 00:10:17;;;;;;;6.63;2.92;;;16.00;99.90;;;;;;5075097;28;20551;-77
2022/06/16 00:12:45;;;;;;;5.47;2.63;;;16.00;99.90;;;;;;5046511;28;20056;-77
2022/06/16 00:15:14;;;;;;;1.92;1.80;;;15.90;99.90;;;;;;5048734;28;20124;-77
2022/06/16 00:17:43;;;;;;;3.75;1.88;;;15.90;99.90;;;;;;5059631;28;20143;-76
2022/06/16 00:20:11;;;;;;;3.25;1.65;;;15.80;99.90;;;;;;5063651;28;20468;-76
2022/06/16 00:22:39;;;;;;;2.65;2.45;;;15.70;99.90;;;;;;5029855;28;20095;-77
2022/06/16 00:25:08;;;;;;;3.50;1.88;;;15.70;99.90;;;;;;5047258;28;20053;-77
2022/06/16 00:27:36;;;;;;;2.08;1.80;;;15.60;99.90;;;;;;5063483;28;20040;-76
2022/06/16 00:30:05;;;;;;;2.25;2.05;;;15.50;99.90;;;;;;5057332;28;20535;-76
2022/06/16 00:32:32;;;;;;;5.53;1.88;;;15.40;99.90;;;;;;5047010;28;20540;-77
2022/06/16 00:35:01;;;;;;;6.78;1.60;;;15.30;99.90;;;;;;5034112;28;20063;-76
2022/06/16 00:37:28;;;;;;;1.75;1.65;;;15.30;99.90;;;;;;5073710;28;20599;-75
2022/06/16 00:39:56;;;;;;;1.42;1.33;;;15.20;99.90;;;;;;5060068;28;20137;-75
2022/06/16 00:42:26;;;;;;;2.55;1.70;;;15.20;99.90;;;;;;5054772;28;20152;-75
2022/06/16 00:44:56;;;;;;;1.80;1.70;;;15.20;99.90;;;;;;5061336;28;20127;-75
2022/06/16 00:47:26;;;;;;;4.68;1.33;;;15.20;99.90;;;;;;5072999;28;20048;-75
2022/06/16 00:49:57;;;;;;;1.73;1.63;;;15.10;99.90;;;;;;5052025;28;20071;-75
2022/06/16 00:52:28;;;;;;;1.33;1.23;;;15.20;99.90;;;;;;5052320;28;20420;-76
2022/06/16 00:55:03;;;;;;;1.38;1.27;;;15.20;99.90;;;;;;5070276;28;20109;-75
2022/06/16 00:57:36;;;;;;;1.95;1.10;;;15.20;99.90;;;;;;5068716;28;20141;-76
2022/06/16 01:00:11;;;;;;;1.60;1.27;;;15.20;99.90;;;;;;5054062;28;20563;-75
2022/06/16 01:02:38;;;;;;;4.30;1.40;;;15.20;99.90;;;;;;5058041;28;20098;-76
2022/06/16 01:05:05;;;;;;;3.58;1.30;;;15.10;99.90;;;;;;5047838;28;20037;-76
2022/06/16 01:07:38;;;;;;;1.00;1.00;;;15.10;99.90;;;;;;5049156;28;20049;-75
2022/06/16 01:10:09;;;;;;;2.40;1.23;;;15.10;99.90;;;;;;5056663;28;20060;-75
2022/06/16 01:16:02;;;;;;;1.50;1.40;;;15.10;99.90;;;;;;5063595;28;20052;-75
2022/06/16 01:18:43;;;;;;;1.48;1.38;;;15.10;99.90;;;;;;5053654;28;20053;-76
2022/06/16 01:21:18;;;;;;;7.30;4.45;;;15.10;99.90;;;;;;5062927;28;20135;-76
2022/06/16 01:24:12;;;;;;;7.78;5.68;;;15.10;99.90;;;;;;5072242;28;20147;-76
2022/06/16 01:27:28;;;;;;;4.55;2.97;;;15.00;99.90;;;;;;5054835;28;20461;-75
2022/06/16 01:30:01;;;;;;;2.65;1.58;;;15.00;99.90;;;;;;5059273;28;20135;-76
2022/06/16 01:32:40;;;;;;;1.73;1.63;;;14.90;99.90;;;;;;5071822;28;20147;-76
2022/06/16 01:35:19;;;;;;;2.13;1.50;;;14.90;99.90;;;;;;5061682;28;20118;-77
2022/06/16 01:38:01;;;;;;;4.22;1.50;;;14.90;99.90;;;;;;5068850;28;20141;-76
2022/06/16 01:40:34;;;;;;;1.95;1.35;;;14.90;99.90;;;;;;5052530;28;20053;-76
2022/06/16 01:43:09;;;;;;;1.10;1.10;;;14.90;99.90;;;;;;5052078;28;20471;-76
2022/06/16 01:45:43;;;;;;;1.38;1.27;;;14.90;99.90;;;;;;5049960;28;20392;-76
2022/06/16 01:48:17;;;;;;;2.63;1.33;;;14.90;99.90;;;;;;5061808;28;20098;-76
2022/06/16 01:50:51;;;;;;;1.83;1.00;;;14.80;99.90;;;;;;5072389;28;20057;-76
2022/06/16 01:53:23;;;;;;;2.85;1.42;;;14.80;99.90;;;;;;5064381;28;20136;-76
2022/06/16 01:55:56;;;;;;;1.50;1.17;;;14.80;99.90;;;;;;5048436;28;20068;-76
2022/06/16 01:58:29;;;;;;;1.40;1.20;;;14.80;99.90;;;;;;5069012;28;20305;-76
2022/06/16 02:01:03;;;;;;;2.72;1.52;;;14.80;99.90;;;;;;5055858;28;20144;-75
2022/06/16 02:03:33;;;;;;;1.65;1.55;;;14.80;99.90;;;;;;5052866;28;20057;-76
2022/06/16 02:06:09;;;;;;;2.15;1.20;;;14.80;99.90;;;;;;5046960;28;20056;-76
2022/06/16 02:08:41;;;;;;;2.47;1.40;;;14.80;99.90;;;;;;5070136;28;20045;-76
2022/06/16 02:11:13;;;;;;;;;;;14.80;99.90;;;;;;5056294;28;20057;-76
2022/06/16 02:13:45;;;;;;;1.77;1.67;;;14.80;99.90;;;;;;5030564;28;20330;-76
2022/06/16 02:16:19;;;;;;;1.40;1.30;;;14.80;99.90;;;;;;5064349;28;20138;-76
2022/06/16 02:18:50;;;;;;;1.45;1.17;;;14.80;99.90;;;;;;5071170;28;20138;-76
2022/06/16 02:21:23;;;;;;;1.23;1.13;;;14.80;99.90;;;;;;5061893;28;20040;-76
2022/06/16 02:23:52;;;;;;;2.38;1.00;;;14.80;99.90;;;;;;5041154;28;20463;-76
2022/06/16 02:26:22;;;;;;;1.33;1.00;;;14.80;99.90;;;;;;5069821;28;20598;-76
2022/06/16 02:28:52;;;;;;;1.00;1.00;;;14.80;99.90;;;;;;5054313;28;20081;-77
2022/06/16 02:31:38;;;;;;;1.27;1.08;;;14.80;99.90;;;;;;5054913;28;20071;-77
2022/06/16 02:34:15;;;;;;;2.80;1.00;;;14.80;99.90;;;;;;5065530;28;20118;-77
2022/06/16 02:36:54;;;;;;;3.33;1.17;;;14.80;99.90;;;;;;5071678;28;20052;-76
2022/06/16 02:39:36;;;;;;;1.45;1.35;;;14.80;99.90;;;;;;5065880;28;20120;-76
2022/06/16 02:42:16;;;;;;;3.73;1.03;;;14.80;99.90;;;;;;5058065;28;20460;-76
2022/06/16 02:44:53;;;;;;;1.65;0.73;;;14.80;99.90;;;;;;5070435;28;20079;-76
2022/06/16 02:47:45;;;;;;;1.50;1.02;;;14.80;99.90;;;;;;5070631;28;20052;-76
2022/06/16 02:50:21;;;;;;;;;;;14.80;99.90;;;;;;5048983;28;20089;-75
2022/06/16 02:52:57;;;;;;;3.75;1.20;;;14.80;99.90;;;;;;5050240;28;19963;-76
2022/06/16 02:55:31;;;;;;;1.15;1.10;;;14.80;99.90;;;;;;5033752;28;20102;-76
2022/06/16 02:58:01;;;;;;;6.30;1.13;;;14.80;99.90;;;;;;5048331;28;20408;-76
2022/06/16 03:00:42;;;;;;;2.47;1.30;;;14.90;99.90;;;;;;5059520;28;20418;-76
2022/06/16 03:03:19;;;;;;;1.45;1.15;;;14.80;99.90;;;;;;5070700;28;20500;-76
2022/06/16 03:05:51;;;;;;;3.42;0.90;;;14.80;99.90;;;;;;5070103;28;20052;-76
2022/06/16 03:08:19;;;;;;;2.83;0.98;;;14.80;99.90;;;;;;5053589;28;20498;-76
2022/06/16 03:10:52;;;;;;;1.33;0.93;;;14.80;99.90;;;;;;5055010;28;20056;-76
2022/06/16 03:13:21;;;;;;;1.73;0.90;;;14.80;99.90;;;;;;5052031;28;20131;-76
2022/06/16 03:15:50;;;;;;;1.05;0.98;;;14.80;99.90;;;;;;5033896;28;20051;-77
2022/06/16 03:18:20;;;;;;;1.98;1.00;;;14.80;99.90;;;;;;5054425;28;20049;-77
2022/06/16 03:20:47;;;;;;;1.00;1.00;;;14.90;99.90;;;;;;5070472;28;20056;-77
2022/06/16 03:23:15;;;;;;;2.05;1.10;;;14.90;99.90;;;;;;5053664;28;20045;-77
2022/06/16 03:25:44;;;;;;;1.00;1.00;;;14.90;99.90;;;;;;5065020;28;20079;-74
2022/06/16 03:28:14;;;;;;;2.15;1.05;;;14.90;99.90;;;;;;5062300;28;20094;-76
2022/06/16 03:30:43;;;;;;;1.67;0.95;;;14.90;99.90;;;;;;5068898;28;20067;-76
2022/06/16 03:33:14;;;;;;;4.43;1.15;;;14.90;99.90;;;;;;5069919;28;20144;-77
2022/06/16 03:35:45;;;;;;;2.25;1.02;;;15.00;99.90;;;;;;5057512;28;20428;-78
2022/06/16 03:38:16;;;;;;;2.58;1.55;;;15.00;99.90;;;;;;5070088;28;20496;-78
2022/06/16 03:40:45;;;;;;;1.02;0.90;;;15.00;99.90;;;;;;5068679;28;20433;-78
2022/06/16 03:43:14;;;;;;;0.90;0.90;;;15.00;99.90;;;;;;5071559;28;20048;-78
2022/06/16 03:45:42;;;;;;;0.98;0.98;;;15.00;99.90;;;;;;5036474;28;20056;-77
2022/06/16 03:48:11;;;;;;;3.40;1.15;;;15.00;99.90;;;;;;5049602;28;20139;-77
2022/06/16 03:50:42;;;;;;;1.52;1.17;;;15.00;99.90;;;;;;5049261;28;20451;-78
2022/06/16 03:53:11;;;;;;;3.47;1.00;;;15.10;99.90;;;;;;5050077;28;20055;-77
2022/06/16 03:55:45;;;;;;;1.77;0.88;;;15.10;99.90;;;;;;5046535;28;20083;-76
2022/06/16 03:58:14;;;;;;;1.88;0.90;;;15.10;99.90;;;;;;5046354;28;20079;-78
2022/06/16 04:00:42;;;;;;;4.03;1.00;;;15.10;99.90;;;;;;5029893;28;20461;-78
2022/06/16 04:05:57;;;;;;;3.03;1.00;;;15.20;99.90;;;;;;5030164;28;20057;-78
2022/06/16 04:08:25;;;;;;;1.17;1.02;;;15.20;99.90;;;;;;5011992;28;20045;-77
2022/06/16 04:10:55;;;;;;;2.13;0.93;;;15.20;99.90;;;;;;5042960;28;20052;-77
2022/06/16 04:13:23;;;;;;;0.95;0.95;;;15.20;99.90;;;;;;5042047;28;20041;-76
2022/06/16 04:15:52;;;;;;;1.15;1.05;;;15.30;99.90;;;;;;5026379;28;20053;-76
2022/06/16 04:18:22;;;;;;;3.13;1.10;;;15.30;99.90;;;;;;5027335;28;20087;-77
2022/06/16 04:20:51;;;;;;;1.98;1.17;;;15.40;99.90;;;;;;5030696;28;20359;-78
2022/06/16 04:23:40;;;;;;;4.38;1.30;;;15.40;99.90;;;;;;5043245;28;20041;-77
2022/06/16 04:26:09;;;;;;;3.83;1.27;;;15.40;99.90;;;;;;5049189;28;20084;-77
2022/06/16 04:28:42;;;;;;;1.85;1.15;;;15.40;99.90;;;;;;5048838;28;20135;-77
2022/06/16 04:31:11;;;;;;;6.28;1.90;;;15.50;99.90;;;;;;5047589;28;20139;-77
2022/06/16 04:33:39;;;;;;;2.50;0.98;;;15.50;99.90;;;;;;5048920;28;20051;-77
2022/06/16 04:36:10;;;;;;;2.40;1.10;;;15.50;99.90;;;;;;5031863;28;20045;-77
2022/06/16 04:38:48;;;;;;;4.18;1.50;;;15.60;99.90;;;;;;5049638;28;20076;-76
2022/06/16 04:41:16;;;;;;;4.07;1.05;;;15.70;99.90;;;;;;5044001;28;20057;-77
2022/06/16 04:43:45;;;;;;;1.45;1.33;;;15.70;99.90;;;;;;5045546;28;20575;-77
2022/06/16 04:46:15;;;;;;;1.52;1.20;;;15.70;99.90;;;;;;5029624;28;20509;-77
2022/06/16 04:48:45;;;;;;;1.95;1.00;;;15.60;99.90;;;;;;5012049;28;20045;-77
2022/06/16 04:51:15;;;;;;;2.47;1.35;;;15.60;99.90;;;;;;5042882;28;20064;-78
2022/06/16 04:53:49;;;;;;;1.40;1.30;;;15.60;99.90;;;;;;5028377;28;20420;-77
2022/06/16 04:56:47;;;;;;;1.15;0.90;;;15.60;99.90;;;;;;5025766;28;20055;-77
2022/06/16 04:59:29;;;;;;;3.45;1.08;;;15.60;99.90;;;;;;5025616;28;20037;-77
2022/06/16 05:02:14;;;;;;;1.45;1.17;;;15.80;99.90;;;;;;5028823;28;20128;-78
2022/06/16 05:05:00;;;;;;;2.67;1.10;;;15.90;99.90;;;;;;5030259;28;20119;-77
2022/06/16 05:08:03;;;;;;;2.67;1.50;;;15.90;99.90;;;;;;5015003;28;20480;-77
2022/06/16 05:10:45;;;;;;;2.90;1.13;;;15.90;99.90;;;;;;5038697;28;20464;-77
2022/06/16 05:13:32;;;;;;;3.88;0.90;;;15.80;99.90;;;;;;5048502;28;20049;-77
2022/06/16 05:16:18;;;;;;;1.45;0.98;;;15.80;99.90;;;;;;5049090;28;20084;-77
2022/06/16 05:19:05;;;;;;;4.30;1.40;;;15.80;99.90;;;;;;5046849;28;20203;-78
2022/06/16 05:22:00;;;;;;;0.90;0.90;;;15.90;99.90;;;;;;5049010;28;20122;-77
2022/06/16 05:24:52;;;;;;;1.63;0.80;;;15.90;99.90;;;;;;5041546;28;20150;-77
2022/06/16 05:27:49;;;;;;;3.15;1.02;;;16.00;99.90;;;;;;5042483;28;20513;-77
2022/06/16 05:30:43;;;;;;;1.95;0.80;;;16.10;99.90;;;;;;5046057;28;20059;-77
2022/06/16 05:33:34;;;;;;;0.82;0.70;;;16.30;99.90;;;;;;5044117;28;20132;-77
2022/06/16 05:36:23;;;;;;;0.93;0.80;;;16.40;99.90;;;;;;5034664;28;20429;-79
2022/06/16 05:38:54;;;;;;;5.53;0.88;;;16.50;99.90;;;;;;5044213;28;20056;-78
2022/06/16 05:41:50;;;;;;;5.40;1.00;;;16.70;99.90;;;;;;5021108;28;20377;-77
2022/06/16 05:44:43;;;;;;;2.58;1.10;;;17.10;99.90;;;;;;5014223;28;20127;-77
2022/06/16 05:47:24;;;;;;;0.70;0.70;;;17.50;99.90;;;;;;5034307;28;20049;-78
2022/06/16 05:49:54;;;;;;;3.75;1.10;;;18.10;99.90;;;;;;5052382;28;20088;-79
2022/06/16 05:52:23;;;;;;;3.00;1.00;;;18.50;99.90;;;;;;5063591;28;20056;-78
2022/06/16 05:55:11;;;;;;;2.03;1.10;;;18.60;99.90;;;;;;5065323;28;20092;-78
2022/06/16 05:57:39;;;;;;;7.80;1.20;;;18.70;99.90;;;;;;5051596;28;20049;-78
2022/06/16 06:00:10;;;;;;;4.85;1.00;;;19.10;99.90;;;;;;5034521;28;20045;-78
2022/06/16 06:02:42;;;;;;;1.13;0.77;;;19.60;99.90;;;;;;5040436;28;20045;-77
2022/06/16 06:05:12;;;;;;;2.25;1.05;;;19.80;99.90;;;;;;5046814;28;20128;-78
2022/06/16 06:18:57;;;;;;;1.88;0.98;;;21.00;99.90;;;;;;4983336;28;20121;-78
2022/06/16 06:24:13;;;;;;;4.28;1.05;;;21.70;99.90;;;;;;5048267;28;20048;-77
2022/06/16 06:26:40;;;;;;;3.25;1.00;;;21.40;99.90;;;;;;5038481;28;20416;-77
2022/06/16 06:29:12;;;;;;;1.98;0.80;;;21.10;99.90;;;;;;5047730;28;20039;-78
2022/06/16 06:31:41;;;;;;;4.78;1.20;;;21.40;99.90;;;;;;5042232;28;20044;-78
2022/06/16 06:34:09;;;;;;;2.78;1.33;;;21.10;99.80;;;;;;5046130;28;20048;-77
2022/06/16 06:36:37;;;;;;;2.08;0.90;;;20.80;99.90;;;;;;5047697;28;20047;-78
2022/06/16 06:39:04;;;;;;;1.17;1.05;;;21.00;99.90;;;;;;5039327;28;20071;-78
2022/06/16 06:41:31;;;;;;;3.25;1.25;;;21.20;99.90;;;;;;5042734;28;20498;-78
2022/06/16 06:43:59;;;;;;;3.85;1.63;;;21.40;98.80;;;;;;5048024;28;20491;-78
2022/06/16 06:46:27;;;;;;;3.13;1.20;;;21.50;97.60;;;;;;5041318;28;20052;-78
2022/06/16 06:48:55;;;;;;;8.68;1.38;;;21.70;97.60;;;;;;5043076;28;20041;-78
2022/06/16 06:51:23;;;;;;;1.33;1.23;;;22.00;95.10;;;;;;5048657;28;20045;-78
2022/06/16 06:53:50;;;;;;;1.33;1.23;;;22.30;94.70;;;;;;5044954;28;20102;-80
2022/06/16 06:56:20;;;;;;;3.88;1.40;;;22.70;92.40;;;;;;5050533;28;20037;-78
2022/06/16 06:58:48;;;;;;;1.17;1.17;;;21.90;91.80;;;;;;5044736;28;20072;-77
2022/06/16 07:01:19;;;;;;;7.35;2.15;;;21.80;92.30;;;;;;5059858;28;20057;-78
2022/06/16 07:03:47;;;;;;;2.10;1.17;;;22.20;92.20;;;;;;5050215;28;20063;-78
2022/06/16 07:06:16;;;;;;;9.63;1.42;;;22.10;91.60;;;;;;5066562;28;20040;-78
2022/06/16 07:08:43;;;;;;;9.40;1.80;;;21.80;92.70;;;;;;5051017;28;20405;-79
2022/06/16 07:11:11;;;;;;;9.45;1.63;;;21.50;93.60;;;;;;5044008;28;20047;-78
2022/06/16 07:13:39;;;;;;;6.80;2.70;;;21.10;93.70;;;;;;5051092;28;20053;-78
2022/06/16 07:16:07;;;;;;;2.78;1.42;;;20.60;96.00;;;;;;5047658;28;20071;-78
2022/06/16 07:18:35;;;;;;;2.35;1.50;;;20.70;97.20;;;;;;5043115;28;20087;-77
2022/06/16 07:21:02;;;;;;;5.55;1.27;;;20.40;97.80;;;;;;5049830;28;20400;-78
2022/06/16 07:23:31;;;;;;;5.07;1.58;;;20.90;97.80;;;;;;5050182;28;20061;-78
2022/06/16 07:25:58;;;;;;;2.90;1.20;;;21.70;96.70;;;;;;5048853;28;20136;-79
2022/06/16 07:28:26;;;;;;;2.25;1.15;;;22.60;92.60;;;;;;5045725;28;20048;-77
2022/06/16 07:30:54;;;;;;;4.70;1.30;;;22.20;90.80;;;;;;5059696;28;20453;-79
2022/06/16 07:33:23;;;;;;;5.55;1.33;;;21.60;91.50;;;;;;5049396;28;20051;-77
2022/06/16 07:35:52;;;;;;;3.22;0.98;;;21.10;92.50;;;;;;5058671;28;20044;-76
2022/06/16 07:38:20;;;;;;;1.70;1.20;;;20.60;93.70;;;;;;5071557;28;20048;-77
2022/06/16 07:40:49;;;;;;;12.07;1.25;;;20.80;94.90;;;;;;5067124;28;20140;-77
2022/06/16 07:43:17;;;;;;;1.15;1.02;;;21.30;95.10;;;;;;5050574;28;20053;-77
2022/06/16 07:45:45;;;;;;;2.78;1.42;;;21.10;95.10;;;;;;5051518;28;20053;-78
2022/06/16 07:48:15;;;;;;;4.70;1.50;;;21.40;97.30;;;;;;5049666;28;20128;-78
2022/06/16 07:50:43;;;;;;;4.47;1.30;;;21.70;94.10;;;;;;5050993;28;20102;-77
2022/06/16 07:53:11;;;;;;;3.83;1.70;;;21.60;93.60;;;;;;5038558;28;20306;-77
2022/06/16 07:55:38;;;;;;;7.70;1.40;;;21.50;94.20;;;;;;5056845;28;20053;-77
2022/06/16 07:58:07;;;;;;;3.45;1.63;;;21.20;94.20;;;;;;5038651;28;20049;-78
2022/06/16 08:00:38;;;;;;;5.30;1.63;;;20.50;96.50;;;;;;5043604;28;20148;-76
2022/06/16 08:03:05;;;;;;;3.03;1.65;;;20.40;99.90;;;;;;5047265;28;20063;-77
2022/06/16 08:05:33;;;;;;;2.10;1.33;;;21.10;98.50;;;;;;5050553;28;20496;-79
2022/06/16 08:08:01;;;;;;;1.48;1.30;;;22.50;94.10;;;;;;5051407;28;20076;-78
2022/06/16 08:10:33;;;;;;;2.67;1.27;;;23.50;89.20;;;;;;5048414;28;20049;-76
2022/06/16 08:13:01;;;;;;;6.72;1.55;;;23.90;84.70;;;;;;5066645;28;20048;-78
2022/06/16 08:15:30;;;;;;;3.17;1.50;;;23.10;84.50;;;;;;5070604;28;20526;-76
2022/06/16 08:17:58;;;;;;;2.55;1.50;;;22.30;89.50;;;;;;5067797;28;20045;-76
2022/06/16 08:20:26;;;;;;;4.82;1.40;;;21.80;91.90;;;;;;5052215;28;20052;-76
2022/06/16 08:22:56;;;;;;;4.15;1.60;;;21.40;92.60;;;;;;5058130;28;20098;-78
2022/06/16 08:25:25;;;;;;;4.47;1.80;;;21.80;94.40;;;;;;5047807;28;20139;-77
2022/06/16 08:27:55;;;;;;;5.38;1.55;;;22.90;92.00;;;;;;5036792;28;20044;-79
2022/06/16 08:30:24;;;;;;;7.60;1.95;;;23.90;89.60;;;;;;5057533;28;20048;-76
2022/06/16 08:32:53;;;;;;;5.07;2.45;;;24.80;82.10;;;;;;5065768;28;20044;-78
2022/06/16 08:35:23;;;;;;;5.38;2.22;;;25.30;79.10;;;;;;5048275;28;20082;-76
2022/06/16 08:37:51;;;;;;;3.90;1.55;;;25.90;77.00;;;;;;5047723;28;20079;-77
2022/06/16 08:40:20;;;;;;;3.55;1.33;;;26.60;71.80;;;;;;5049118;28;20148;-78
2022/06/16 08:42:51;;;;;;;3.83;1.38;;;27.30;68.70;;;;;;5049342;28;20077;-78
2022/06/16 08:45:31;;;;;;;6.97;1.38;;;27.80;65.10;;;;;;5050064;28;20441;-78
2022/06/16 08:48:10;;;;;;;1.35;1.10;;;27.80;60.80;;;;;;5052798;28;20057;-78
2022/06/16 08:50:45;;;;;;;4.28;1.25;;;27.60;60.30;;;;;;5066535;28;20106;-78
2022/06/16 08:53:25;;;;;;;3.30;1.13;;;27.20;60.30;;;;;;5067192;28;20144;-78
2022/06/16 08:55:57;;;;;;;4.32;1.63;;;27.40;60.60;;;;;;5051827;28;20067;-79
2022/06/16 08:58:32;;;;;;;1.73;1.20;;;27.70;58.50;;;;;;5061084;28;20072;-79
2022/06/16 09:01:07;;;;;;;5.60;0.88;;;28.10;58.90;;;;;;5033664;28;20104;-79
2022/06/16 09:03:42;;;;;;;1.02;0.93;;;28.50;56.20;;;;;;5041126;28;20056;-78
2022/06/16 09:06:24;;;;;;;1.95;0.95;;;28.20;56.20;;;;;;5059483;28;20045;-78
2022/06/16 09:08:59;;;;;;;7.73;1.30;;;28.10;57.40;;;;;;5063810;28;20099;-77
2022/06/16 09:11:36;;;;;;;2.65;1.27;;;28.50;56.70;;;;;;5053622;28;20315;-78
2022/06/16 09:17:16;;;;;;;2.97;1.30;;;29.10;54.90;;;;;;5033909;28;20061;-77
2022/06/16 09:20:00;;;;;;;4.28;1.40;;;29.50;55.60;;;;;;5050430;28;20060;-78
2022/06/16 09:22:40;;;;;;;5.18;1.20;;;29.90;53.40;;;;;;5063273;28;20106;-79
2022/06/16 09:25:24;;;;;;;4.75;1.10;;;30.00;53.60;;;;;;5059251;28;20052;-79
2022/06/16 09:27:57;;;;;;;1.52;1.00;;;30.00;53.60;;;;;;5054034;28;20053;-79
2022/06/16 09:30:30;;;;;;;5.28;1.38;;;29.90;51.70;;;;;;5061695;28;20053;-77
2022/06/16 09:33:01;;;;;;;2.83;1.23;;;29.80;53.60;;;;;;5054380;28;20458;-77
2022/06/16 09:35:34;;;;;;;2.90;1.52;;;30.10;51.60;;;;;;5068500;28;20073;-78
2022/06/16 09:38:08;;;;;;;2.80;1.08;;;30.10;52.00;;;;;;5053249;28;20095;-78
2022/06/16 09:40:39;;;;;;;3.97;1.10;;;30.20;53.40;;;;;;5051931;28;20079;-77
2022/06/16 09:43:13;;;;;;;6.82;1.70;;;30.30;53.60;;;;;;5065535;28;20147;-77
2022/06/16 09:45:48;;;;;;;2.58;1.23;;;30.60;52.80;;;;;;5052288;28;20080;-76
2022/06/16 09:48:21;;;;;;;1.48;1.20;;;30.20;52.10;;;;;;5050834;28;20048;-77
2022/06/16 09:50:56;;;;;;;1.98;1.20;;;29.10;54.80;;;;;;5053215;28;20103;-77
2022/06/16 09:53:30;;;;;;;2.63;1.30;;;29.10;53.80;;;;;;5062935;28;20317;-77
2022/06/16 09:56:03;;;;;;;3.97;1.20;;;29.40;54.70;;;;;;5051511;28;20585;-76
2022/06/16 09:58:38;;;;;;;1.23;1.13;;;29.90;53.70;;;;;;5034160;28;20478;-78
2022/06/16 10:01:09;;;;;;;3.42;1.20;;;30.20;54.30;;;;;;5063593;28;20068;-79
2022/06/16 10:03:53;;;;;;;3.95;1.08;;;30.70;52.80;;;;;;5044921;28;20060;-81
2022/06/16 10:06:37;;;;;;;3.25;1.35;;;31.00;52.20;;;;;;5043740;28;20521;-77
2022/06/16 10:09:19;;;;;;;1.50;1.25;;;31.10;50.80;;;;;;5052921;28;20411;-78
2022/06/16 10:12:00;;;;;;;2.90;1.20;;;30.90;51.30;;;;;;5064929;28;20425;-78
2022/06/16 10:14:35;;;;;;;5.03;1.20;;;30.40;50.90;;;;;;5033177;28;20049;-78
2022/06/16 10:17:06;;;;;;;3.50;1.65;;;30.60;51.40;;;;;;5032931;28;20536;-78
2022/06/16 10:19:39;;;;;;;3.10;1.33;;;30.90;51.20;;;;;;5060640;28;20106;-78
2022/06/16 10:22:09;;;;;;;2.08;1.85;;;31.00;51.00;;;;;;5049023;28;20468;-78
2022/06/16 10:24:42;;;;;;;2.65;1.92;;;31.20;50.70;;;;;;5048311;28;20080;-78
2022/06/16 10:27:12;;;;;;;;;;;31.30;51.00;;;;;;5053930;28;20075;-79
2022/06/16 10:29:50;;;;;;;5.57;1.58;;;31.50;50.30;;;;;;5057503;28;20011;-79
2022/06/16 10:32:19;;;;;;;2.25;1.30;;;31.70;49.30;;;;;;5048588;28;20099;-78
2022/06/16 10:34:53;;;;;;;5.68;1.45;;;32.00;48.50;;;;;;5043656;28;20052;-79
2022/06/16 10:37:27;;;;;;;2.88;1.48;;;31.70;49.00;;;;;;5044309;28;20143;-80
2022/06/16 10:40:06;;;;;;;2.20;1.83;;;31.30;48.70;;;;;;5054700;28;20087;-80
2022/06/16 10:42:40;;;;;;;4.28;1.30;;;31.20;49.40;;;;;;5051258;28;20053;-80
2022/06/16 10:45:13;;;;;;;2.33;1.25;;;31.40;49.10;;;;;;5049274;28;20064;-80
2022/06/16 10:47:50;;;;;;;3.47;1.20;;;31.00;49.50;;;;;;5050085;28;20458;-80
2022/06/16 10:50:26;;;;;;;3.28;1.30;;;30.50;49.40;;;;;;5057209;28;20053;-80
2022/06/16 10:53:03;;;;;;;3.35;1.13;;;30.70;50.40;;;;;;5047856;28;20064;-78
2022/06/16 10:55:38;;;;;;;3.83;1.35;;;30.90;49.30;;;;;;5023335;28;20055;-79
2022/06/16 10:58:08;;;;;;;4.07;1.40;;;31.50;48.90;;;;;;5081850;28;20201;-78
2022/06/16 11:00:37;;;;;;;4.28;1.30;;;31.70;49.10;;;;;;5049578;28;20048;-79
2022/06/16 11:03:16;;;;;;;6.30;1.05;;;31.70;49.20;;;;;;5046749;28;20118;-79
2022/06/16 11:05:54;;;;;;;4.25;1.10;;;32.30;47.70;;;;;;5051170;28;20083;-77
2022/06/16 11:08:26;;;;;;;3.13;1.00;;;32.50;46.10;;;;;;5048177;28;20053;-78
2022/06/16 11:10:58;;;;;;;1.88;1.38;;;32.20;46.10;;;;;;5042755;28;20048;-78
2022/06/16 11:13:30;;;;;;;4.03;1.30;;;32.00;46.70;;;;;;5057195;28;20053;-77
2022/06/16 11:15:58;;;;;;;3.70;1.40;;;32.10;46.70;;;;;;5046259;28;20049;-76
2022/06/16 11:18:30;;;;;;;4.03;1.15;;;31.70;46.80;;;;;;5051244;28;20053;-78
2022/06/16 11:21:00;;;;;;;5.32;1.25;;;31.30;47.30;;;;;;5050955;28;20068;-78
2022/06/16 11:23:32;;;;;;;4.38;1.35;;;31.40;48.60;;;;;;5045073;28;20075;-77
2022/06/16 11:26:09;;;;;;;;;;;31.80;47.90;;;;;;5066086;28;20053;-77
2022/06/16 11:28:44;;;;;;;2.10;1.33;;;31.80;47.80;;;;;;5051467;28;20313;-78
2022/06/16 11:31:17;;;;;;;2.17;1.20;;;31.80;47.40;;;;;;5051162;28;20103;-80
2022/06/16 11:36:49;;;;;;;1.67;1.40;;;31.20;47.60;;;;;;5050640;28;20049;-76
2022/06/16 11:39:24;;;;;;;5.53;1.50;;;31.40;48.00;;;;;;5047113;28;20052;-76
2022/06/16 11:41:54;;;;;;;6.28;1.23;;;31.40;46.60;;;;;;5034522;28;20489;-78
2022/06/16 11:44:39;;;;;;;1.80;0.70;;;31.60;46.60;;;;;;5040303;28;20052;-77
2022/06/16 11:47:15;;;;;;;4.00;1.10;;;31.40;45.70;;;;;;5043789;28;20076;-78
2022/06/16 11:49:53;;;;;;;2.38;1.25;;;31.00;47.20;;;;;;5047877;28;20076;-78
2022/06/16 11:52:32;;;;;;;5.65;1.25;;;30.80;49.00;;;;;;5047464;28;20045;-78
2022/06/16 11:55:20;;;;;;;6.95;1.30;;;31.30;48.70;;;;;;5041184;28;20068;-78
2022/06/16 11:57:57;;;;;;;1.60;0.90;;;32.50;48.40;;;;;;5049199;28;20045;-77
2022/06/16 12:00:31;;;;;;;4.05;1.00;;;33.50;46.80;;;;;;5046757;28;20479;-76
2022/06/16 12:03:16;;;;;;;2.47;1.38;;;33.60;45.90;;;;;;5047866;28;20157;-76
2022/06/16 12:05:47;;;;;;;2.05;1.65;;;33.30;45.70;;;;;;5048520;28;20044;-77
2022/06/16 12:08:25;;;;;;;3.75;1.10;;;33.40;46.20;;;;;;5047491;28;20052;-77
2022/06/16 12:10:57;;;;;;;3.75;1.48;;;32.00;46.10;;;;;;5045253;28;20052;-77
2022/06/16 12:13:32;;;;;;;4.30;1.20;;;30.90;48.70;;;;;;5048871;28;20106;-76
2022/06/16 12:16:07;;;;;;;4.20;1.00;;;30.60;48.70;;;;;;5048863;28;20540;-76
2022/06/16 12:18:54;;;;;;;5.75;1.10;;;31.50;48.20;;;;;;5049458;28;20040;-75
2022/06/16 12:21:28;;;;;;;3.03;1.20;;;32.60;45.80;;;;;;5028877;28;20099;-77
2022/06/16 12:24:03;;;;;;;3.60;1.75;;;32.70;44.90;;;;;;5028906;28;20065;-76
2022/06/16 12:26:37;;;;;;;2.08;1.10;;;33.10;45.00;;;;;;5047843;28;20046;-76
2022/06/16 12:29:20;;;;;;;2.13;0.90;;;33.10;44.40;;;;;;5028783;28;20131;-77
2022/06/16 12:31:58;;;;;;;6.22;1.30;;;33.30;44.00;;;;;;5029655;28;20046;-77
2022/06/16 12:34:33;;;;;;;6.63;1.10;;;33.30;44.10;;;;;;5035230;28;20462;-79
2022/06/16 12:37:05;;;;;;;7.95;1.15;;;33.10;43.80;;;;;;5063948;28;20144;-79
2022/06/16 12:39:36;;;;;;;;;;;32.80;44.50;;;;;;5044656;28;20081;-80
2022/06/16 12:42:09;;;;;;;3.42;1.15;;;32.70;44.80;;;;;;5043389;28;20403;-80
2022/06/16 12:44:44;;;;;;;2.58;0.98;;;33.10;45.10;;;;;;5050810;28;20081;-81
2022/06/16 12:47:20;;;;;;;4.10;1.20;;;33.30;44.70;;;;;;5045056;28;20041;-81
2022/06/16 12:49:55;;;;;;;2.63;0.95;;;33.60;43.50;;;;;;5031103;28;20140;-81
2022/06/16 12:52:26;;;;;;;4.28;1.42;;;33.70;43.30;;;;;;5047942;28;20167;-80
2022/06/16 12:55:01;;;;;;;2.40;1.58;;;33.80;44.00;;;;;;5058695;28;20080;-80
2022/06/16 12:57:36;;;;;;;2.35;1.20;;;33.90;43.50;;;;;;5042665;28;20505;-80
2022/06/16 13:00:10;;;;;;;4.35;1.30;;;33.90;43.30;;;;;;5041409;28;20045;-80
2022/06/16 13:02:43;;;;;;;1.77;0.70;;;33.90;42.90;;;;;;5028099;28;20140;-80
2022/06/16 13:05:11;;;;;;;2.85;0.77;;;33.50;44.50;;;;;;5034455;28;20051;-81
2022/06/16 13:07:45;;;;;;;10.55;1.10;;;33.40;44.10;;;;;;5046519;28;20464;-80
2022/06/16 13:10:14;;;;;;;3.05;2.17;;;33.80;44.80;;;;;;5054330;28;20060;-78
2022/06/16 13:12:52;;;;;;;5.55;0.90;;;33.70;42.70;;;;;;5065052;28;20052;-80
2022/06/16 13:15:24;;;;;;;4.10;1.10;;;33.30;43.00;;;;;;5041544;28;20053;-81
2022/06/16 13:17:55;;;;;;;7.88;1.00;;;33.10;43.50;;;;;;5046699;28;20048;-79
2022/06/16 13:20:26;;;;;;;2.87;0.80;;;33.30;43.20;;;;;;5048411;28;20061;-85
2022/06/16 13:22:57;;;;;;;3.00;1.08;;;33.40;43.30;;;;;;5044991;28;20054;-80
2022/06/16 13:25:45;;;;;;;4.38;0.93;;;33.60;44.70;;;;;;5045291;28;20053;-80
2022/06/16 13:28:20;;;;;;;2.63;0.98;;;34.10;43.20;;;;;;5049994;28;20053;-80
2022/06/16 13:31:13;;;;;;;3.22;0.73;;;34.50;42.40;;;;;;5070038;28;20072;-79
2022/06/16 13:33:48;;;;;;;2.67;1.20;;;34.20;42.20;;;;;;5049673;28;20076;-79
2022/06/16 13:36:39;;;;;;;15.88;1.80;;;33.90;42.70;;;;;;5065129;28;20045;-80
2022/06/16 13:39:09;;;;;;;1.02;0.85;;;33.70;42.70;;;;;;5027619;28;20493;-82
2022/06/16 13:41:40;;;;;;;4.85;1.15;;;33.70;42.50;;;;;;5030246;28;20084;-81
2022/06/16 13:44:26;;;;;;;1.35;0.70;;;33.70;42.60;;;;;;5049770;28;20036;-82
2022/06/16 13:47:23;;;;;;;2.65;0.75;;;33.40;42.10;;;;;;5050146;28;20053;-79